Accueil
METAR-TAF:

METAR-TAF

Aéroports :

Newberry, Michigan, États-Unis

latitude: 46-18-40N, longitude: 085-27-26W, altitude: 265 m

Observation

Le bulletin a été fait il y a 28 minutes, à 09:15 UTC
Vent 4 kt de nord
Température 8°C
Humidité 100%
Pression 1011 hPa
Visibilité: 11.3 km
Ciel couvert à une hauteur de 200 ft

METAR: KERY 210915Z AUTO 01004KT 7SM OVC002 08/08 A2984 RMK AO2 T00760076 P0001

Heure: 05:43 (09:43 UTC)


TAF: absent

Observations et prévisions météorologiques de plus de 4000 aéroports (messages METAR et TAF).

Les stations disponibles sont représentées par des disques jaunes et rouges sur la carte.

Passer la souris dessus pour voir le nom de la station.

Cliquer dessus pour voir les observations et prévisions météorologiques.

Pour changer de carte: cliquez sur les boutons verts avec une croix noire pour zoomer, sur le bouton vert avec un tiret pour effectuer un zoom arrière, ou sur les flèches vertes pour les cartes adjacentes.


METAR-TAF: